Time;durP1;ratioP1;P1;durP2;ratioP2;P2;SDS_P1;SDS_P2;PMS_P1;PMS_P2;Temp;Humidity;BMP_temperature;BMP_pressure;BME280_temperature;BME280_humidity;BME280_pressure;Samples;Min_cycle;Max_cycle;Signal;HPM_P1;HPM_P2
2022/04/14 00:00:07;;;;;;;29.20;15.20;;;;;;;7.68;42.21;100707.36;105873;1277;97116;-75
2022/04/14 00:03:01;;;;;;;27.80;15.70;;;;;;;7.67;42.20;100706.87;105646;1277;137141;-75
2022/04/14 00:05:33;;;;;;;25.30;16.10;;;;;;;7.65;42.03;100705.50;105917;1278;108953;-76
2022/04/14 00:08:06;;;;;;;26.00;15.80;;;;;;;7.64;42.13;100707.42;105666;1279;138274;-76
2022/04/14 00:10:38;;;;;;;27.70;16.00;;;;;;;7.63;41.91;100707.44;105934;1277;96514;-74
2022/04/14 00:13:10;;;;;;;28.50;15.70;;;;;;;7.61;42.15;100705.56;105700;1278;137541;-76
2022/04/14 00:15:42;;;;;;;25.70;15.40;;;;;;;7.60;41.99;100707.31;105863;1278;110216;-76
2022/04/14 00:18:14;;;;;;;27.90;14.80;;;;;;;7.58;41.96;100704.39;105836;1278;106735;-76
2022/04/14 00:20:46;;;;;;;29.70;16.30;;;;;;;7.56;41.90;100703.04;105779;1278;137711;-75
2022/04/14 00:23:18;;;;;;;27.10;16.30;;;;;;;7.55;41.95;100698.55;105966;1278;96506;-74
2022/04/14 00:25:50;;;;;;;28.80;16.10;;;;;;;7.52;42.04;100694.59;105886;1278;137576;-76
2022/04/14 00:28:22;;;;;;;30.20;15.20;;;;;;;7.50;42.18;100695.82;105706;1277;331866;-74
2022/04/14 00:30:54;;;;;;;28.00;15.80;;;;;;;7.48;41.77;100690.66;105801;1280;137767;-76
2022/04/14 00:33:26;;;;;;;26.30;14.80;;;;;;;7.48;41.93;100693.79;105782;1278;108678;-75
2022/04/14 00:35:57;;;;;;;27.80;14.90;;;;;;;7.47;41.74;100693.79;105781;1278;96514;-76
2022/04/14 00:38:30;;;;;;;31.30;15.30;;;;;;;7.46;41.80;100687.07;105729;1278;137552;-75
2022/04/14 00:41:02;;;;;;;25.90;14.30;;;;;;;7.45;41.85;100689.31;105861;1278;110038;-76
2022/04/14 00:43:36;;;;;;;25.50;14.00;;;;;;;7.43;41.68;100683.47;105727;1278;139193;-75
2022/04/14 00:46:08;;;;;;;25.90;14.40;;;;;;;7.43;41.70;100679.48;105747;1277;107793;-75
2022/04/14 00:48:40;;;;;;;24.00;14.60;;;;;;;7.42;41.78;100677.43;105822;1279;96582;-75
2022/04/14 00:51:12;;;;;;;27.40;15.20;;;;;;;7.42;41.93;100678.81;105668;1278;137562;-75
2022/04/14 00:53:44;;;;;;;24.00;14.30;;;;;;;7.41;41.73;100679.52;105813;1279;111188;-75
2022/04/14 00:56:16;;;;;;;25.90;14.60;;;;;;;7.40;41.76;100680.05;105798;1278;137807;-76
2022/04/14 00:58:48;;;;;;;26.90;14.10;;;;;;;7.40;41.86;100682.13;105870;1279;108416;-76
2022/04/14 01:01:21;;;;;;;23.40;14.00;;;;;;;7.38;41.81;100672.83;105721;1279;138023;-75
2022/04/14 01:03:56;;;;;;;22.00;13.90;;;;;;;7.36;41.82;100670.58;105867;1279;97869;-76
2022/04/14 01:06:29;;;;;;;23.70;12.70;;;;;;;7.34;41.76;100671.63;105772;1278;110872;-75
2022/04/14 01:09:19;;;;;;;21.30;13.20;;;;;;;7.32;41.83;100677.36;105884;1278;137903;-75
2022/04/14 01:11:53;;;;;;;22.60;13.40;;;;;;;7.30;41.90;100680.85;107288;1278;108823;-75
2022/04/14 01:14:30;;;;;;;22.10;12.80;;;;;;;7.28;41.74;100681.23;106166;1277;137582;-75
2022/04/14 01:17:04;;;;;;;25.20;13.30;;;;;;;7.26;41.89;100680.72;107352;1277;94699;-76
2022/04/14 01:19:37;;;;;;;21.80;13.90;;;;;;;7.25;41.91;100678.83;106405;1277;137433;-74
2022/04/14 01:22:12;;;;;;;22.60;13.60;;;;;;;7.24;41.87;100686.98;105906;1277;108895;-75
2022/04/14 01:24:44;;;;;;;24.50;13.10;;;;;;;7.22;42.13;100685.11;107360;1277;107532;-75
2022/04/14 01:27:16;;;;;;;21.70;12.30;;;;;;;7.20;42.09;100684.43;107253;1278;137397;-75
2022/04/14 01:29:51;;;;;;;27.20;13.40;;;;;;;7.18;42.04;100682.73;107111;1279;94722;-75
2022/04/14 01:32:25;;;;;;;21.10;14.00;;;;;;;7.15;42.32;100681.88;105773;1279;138466;-74
2022/04/14 01:34:56;;;;;;;23.50;13.80;;;;;;;7.12;42.20;100685.55;105999;1278;108414;-75
2022/04/14 01:37:28;;;;;;;26.00;13.50;;;;;;;7.09;42.29;100686.29;105819;1277;137946;-75
2022/04/14 01:40:00;;;;;;;26.00;14.20;;;;;;;7.06;42.23;100684.93;105910;1277;96546;-75
2022/04/14 01:42:33;;;;;;;25.80;14.20;;;;;;;7.02;42.58;100685.84;105999;1277;96488;-75
2022/04/14 01:45:11;;;;;;;26.70;14.80;;;;;;;6.97;42.68;100687.27;105861;1277;138389;-76
2022/04/14 01:47:45;;;;;;;26.40;15.20;;;;;;;6.93;42.81;100688.18;107422;1277;109786;-76
2022/04/14 01:50:18;;;;;;;27.40;15.80;;;;;;;6.87;43.17;100687.05;106766;1277;137660;-76
2022/04/14 01:52:51;;;;;;;26.00;15.90;;;;;;;6.82;43.16;100683.97;105817;1277;96462;-75
2022/04/14 01:55:23;;;;;;;28.30;16.40;;;;;;;6.76;43.39;100681.61;105849;1278;139268;-75
2022/04/14 01:57:55;;;;;;;28.50;16.40;;;;;;;6.71;43.37;100681.66;105984;1278;111226;-75
2022/04/14 02:00:27;;;;;;;30.90;16.40;;;;;;;6.66;43.67;100683.61;105924;1277;108864;-76
2022/04/14 02:02:59;;;;;;;29.20;17.00;;;;;;;6.61;43.95;100683.11;105822;1279;137775;-76
2022/04/14 02:05:31;;;;;;;27.90;16.40;;;;;;;6.57;44.07;100683.34;105925;1278;97322;-75
2022/04/14 02:08:03;;;;;;;30.10;17.50;;;;;;;6.53;44.31;100683.38;105832;1279;137363;-75
2022/04/14 02:10:35;;;;;;;28.80;17.30;;;;;;;6.49;44.30;100685.15;106026;1277;111266;-76
2022/04/14 02:13:07;;;;;;;28.90;17.50;;;;;;;6.44;44.63;100681.54;105841;1278;139208;-76
2022/04/14 02:15:39;;;;;;;31.90;17.60;;;;;;;6.40;44.88;100682.45;105922;1278;109019;-75
2022/04/14 02:18:11;;;;;;;31.10;18.30;;;;;;;6.35;45.06;100678.17;105955;1277;97265;-75
2022/04/14 02:20:43;;;;;;;34.30;18.00;;;;;;;6.31;45.17;100680.63;105727;1278;137398;-75
2022/04/14 02:23:15;;;;;;;33.40;18.60;;;;;;;6.27;45.45;100682.54;105966;1278;110586;-74
2022/04/14 02:25:47;;;;;;;31.70;19.10;;;;;;;6.24;45.58;100683.95;105856;1277;138735;-75
2022/04/14 02:28:20;;;;;;;31.10;18.00;;;;;;;6.21;45.67;100685.88;106294;1277;109030;-75
2022/04/14 02:30:52;;;;;;;34.10;19.10;;;;;;;6.18;45.80;100684.52;105904;1277;96575;-75
2022/04/14 02:33:24;;;;;;;37.70;20.20;;;;;;;6.15;46.21;100682.13;105853;1277;137303;-75
2022/04/14 02:35:56;;;;;;;35.80;19.80;;;;;;;6.12;46.14;100679.04;105974;1278;110246;-74
2022/04/14 02:38:28;;;;;;;33.60;19.20;;;;;;;6.08;46.67;100677.84;105829;1277;137587;-75
2022/04/14 02:40:59;;;;;;;39.40;21.40;;;;;;;6.04;46.84;100675.80;105961;1279;108344;-75
2022/04/14 02:43:31;;;;;;;30.80;19.90;;;;;;;6.01;46.90;100672.20;105848;1279;138112;-75
2022/04/14 02:46:04;;;;;;;35.40;20.20;;;;;;;5.99;47.22;100672.05;105842;1279;96373;-74
2022/04/14 02:48:36;;;;;;;37.30;20.10;;;;;;;5.96;47.35;100669.83;105914;1277;111170;-75
2022/04/14 02:51:08;;;;;;;39.50;21.20;;;;;;;5.94;47.84;100664.15;105727;1278;137540;-75
2022/04/14 02:53:40;;;;;;;38.40;21.30;;;;;;;5.91;47.74;100668.12;105953;1277;108454;-74
2022/04/14 02:56:12;;;;;;;36.30;20.50;;;;;;;5.88;47.92;100671.21;105867;1278;137818;-74
2022/04/14 02:58:46;;;;;;;40.90;21.40;;;;;;;5.85;48.12;100670.71;105810;1278;97741;-75
2022/04/14 03:01:18;;;;;;;35.00;21.40;;;;;;;5.82;47.97;100668.85;105718;1278;137564;-75
2022/04/14 03:03:50;;;;;;;40.50;21.30;;;;;;;5.80;48.34;100671.62;105786;1277;109489;-75
2022/04/14 03:06:21;;;;;;;37.80;20.80;;;;;;;5.79;48.51;100670.59;105831;1277;107919;-75
2022/04/14 03:08:53;;;;;;;37.80;20.90;;;;;;;5.78;48.64;100670.08;105791;1278;137576;-74
2022/04/14 03:11:25;;;;;;;42.50;21.00;;;;;;;5.78;48.85;100674.39;105901;1277;96563;-75
2022/04/14 03:13:57;;;;;;;35.10;21.10;;;;;;;5.78;49.03;100673.88;105792;1277;137494;-75
2022/04/14 03:16:29;;;;;;;35.40;20.10;;;;;;;5.78;48.85;100668.54;105952;1277;108765;-74
2022/04/14 03:19:02;;;;;;;37.10;20.90;;;;;;;5.78;49.21;100668.19;105812;1277;137596;-75
2022/04/14 03:21:33;;;;;;;33.60;20.40;;;;;;;5.78;49.04;100664.22;105855;1277;96477;-76
2022/04/14 03:24:06;;;;;;;31.60;19.50;;;;;;;5.78;49.37;100663.53;105980;1278;96492;-75
2022/04/14 03:26:38;;;;;;;37.20;20.50;;;;;;;5.77;49.11;100664.23;107274;1277;137491;-75
2022/04/14 03:29:10;;;;;;;33.00;19.10;;;;;;;5.78;49.26;100654.05;106688;1277;108851;-75
2022/04/14 03:31:42;;;;;;;34.90;20.20;;;;;;;5.78;49.38;100657.67;105803;1278;137846;-75
2022/04/14 03:34:14;;;;;;;39.40;20.60;;;;;;;5.79;49.31;100655.59;105873;1277;96498;-75
2022/04/14 03:36:46;;;;;;;36.80;20.30;;;;;;;5.81;49.66;100649.18;105977;1278;96607;-75
2022/04/14 03:39:18;;;;;;;35.00;20.40;;;;;;;5.83;49.43;100644.68;105827;1277;137333;-75
2022/04/14 03:41:50;;;;;;;41.80;20.00;;;;;;;5.84;49.47;100639.48;105921;1277;109127;-76
2022/04/14 03:44:22;;;;;;;41.90;20.30;;;;;;;5.87;49.45;100643.96;105760;1277;137607;-74
2022/04/14 03:46:54;;;;;;;34.70;19.90;;;;;;;5.88;49.38;100646.70;105807;1278;96552;-74
2022/04/14 03:49:26;;;;;;;36.60;19.40;;;;;;;5.92;49.28;100645.16;105706;1278;138191;-74
2022/04/14 03:51:58;;;;;;;33.90;20.20;;;;;;;5.94;49.20;100646.02;105797;1277;111564;-74
2022/04/14 03:54:30;;;;;;;38.40;20.00;;;;;;;5.95;49.29;100639.98;105848;1277;109203;-74
2022/04/14 03:57:02;;;;;;;34.50;20.10;;;;;;;5.99;49.27;100635.80;105736;1278;137687;-74
2022/04/14 03:59:34;;;;;;;37.90;20.30;;;;;;;6.02;49.39;100636.98;105860;1277;96465;-74
2022/04/14 04:02:07;;;;;;;33.70;20.30;;;;;;;6.06;49.34;100639.71;105690;1277;137655;-74
2022/04/14 04:04:40;;;;;;;38.60;19.30;;;;;;;6.09;49.19;100638.82;105820;1278;110161;-74
2022/04/14 04:07:12;;;;;;;37.70;20.80;;;;;;;6.12;49.10;100644.16;105660;1278;143145;-74
2022/04/14 04:09:44;;;;;;;34.90;19.70;;;;;;;6.15;49.13;100642.08;105776;1277;108813;-74
2022/04/14 04:12:17;;;;;;;35.20;19.90;;;;;;;6.18;49.01;100637.73;105840;1277;96725;-74
2022/04/14 04:14:50;;;;;;;35.90;19.90;;;;;;;6.21;49.16;100639.60;105650;1277;137521;-75
2022/04/14 04:17:21;;;;;;;35.60;20.10;;;;;;;6.25;49.00;100635.58;105789;1277;110154;-73
2022/04/14 04:19:55;;;;;;;38.20;20.30;;;;;;;6.30;48.91;100636.44;105780;1278;139123;-74
2022/04/14 04:22:27;;;;;;;39.10;20.60;;;;;;;6.36;49.01;100631.19;105826;1277;106361;-74
2022/04/14 04:24:59;;;;;;;34.50;19.40;;;;;;;6.43;48.70;100622.82;105818;1277;96490;-74
2022/04/14 04:27:31;;;;;;;34.40;19.90;;;;;;;6.52;48.64;100631.03;105619;1277;139681;-74
2022/04/14 04:30:03;;;;;;;35.70;20.30;;;;;;;6.68;48.43;100623.27;105864;1277;111014;-74
2022/04/14 04:32:35;;;;;;;36.40;20.50;;;;;;;6.92;48.08;100623.70;105743;1277;137771;-74
2022/04/14 04:35:09;;;;;;;33.50;19.40;;;;;;;7.15;47.69;100623.27;105846;1277;109026;-73
2022/04/14 04:37:41;;;;;;;35.70;19.10;;;;;;;7.39;47.44;100622.62;105766;1278;138181;-74
2022/04/14 04:40:14;;;;;;;35.80;19.20;;;;;;;7.65;46.93;100617.94;105852;1278;96645;-74
2022/04/14 04:42:46;;;;;;;36.10;19.60;;;;;;;7.90;46.43;100616.54;107381;1277;111120;-76
2022/04/14 04:45:18;;;;;;;37.60;18.90;;;;;;;8.14;46.02;100616.67;107212;1278;137573;-75
2022/04/14 04:47:50;;;;;;;31.30;18.60;;;;;;;8.41;45.45;100609.66;106448;1278;108801;-76
2022/04/14 04:50:22;;;;;;;33.30;18.60;;;;;;;8.72;44.96;100614.13;105677;1278;137936;-75
2022/04/14 04:52:54;;;;;;;40.40;20.00;;;;;;;9.02;44.48;100611.28;105839;1278;96508;-74
2022/04/14 04:55:26;;;;;;;33.70;18.30;;;;;;;9.36;43.87;100610.58;105714;1278;137930;-75
2022/04/14 04:57:58;;;;;;;31.00;17.80;;;;;;;9.75;43.26;100608.50;105963;1277;109024;-75
2022/04/14 05:00:31;;;;;;;31.00;18.00;;;;;;;10.21;42.66;100608.80;105931;1278;108858;-75
2022/04/14 05:03:07;;;;;;;30.90;19.50;;;;;;;10.63;41.92;100609.83;105853;1277;138246;-76
2022/04/14 05:05:40;;;;;;;31.90;17.30;;;;;;;10.95;41.11;100608.44;105962;1277;96523;-75
2022/04/14 05:08:12;;;;;;;39.40;18.10;;;;;;;11.15;40.56;100612.20;105829;1278;138088;-77
2022/04/14 05:10:44;;;;;;;28.60;16.70;;;;;;;11.31;40.07;100612.80;105894;1277;108492;-76
2022/04/14 05:13:17;;;;;;;30.50;17.40;;;;;;;11.51;39.58;100610.46;105700;1278;138704;-75
2022/04/14 05:15:49;;;;;;;33.70;17.00;;;;;;;11.79;39.13;100608.05;105741;1277;96495;-76
2022/04/14 05:18:21;;;;;;;27.80;17.40;;;;;;;12.12;38.60;100608.40;105796;1278;96558;-76
2022/04/14 05:20:53;;;;;;;27.40;17.00;;;;;;;12.43;38.09;100602.48;105688;1277;137946;-76
2022/04/14 05:23:25;;;;;;;30.70;16.90;;;;;;;12.69;37.27;100598.96;105798;1278;108390;-76
2022/04/14 05:25:57;;;;;;;26.50;15.90;;;;;;;12.91;36.84;100593.96;105716;1278;138016;-76
2022/04/14 05:28:29;;;;;;;27.70;16.40;;;;;;;13.16;36.45;100596.73;105790;1279;96573;-76
2022/04/14 05:31:01;;;;;;;26.40;16.60;;;;;;;13.49;35.98;100595.33;105890;1278;96471;-76
2022/04/14 05:33:34;;;;;;;26.70;16.30;;;;;;;13.81;35.36;100593.89;107163;1277;137844;-76
2022/04/14 05:36:06;;;;;;;28.00;16.10;;;;;;;14.23;35.00;100587.09;105760;1277;108783;-76
2022/04/14 05:38:38;;;;;;;34.90;16.60;;;;;;;14.58;34.03;100589.12;105713;1278;138164;-75
2022/04/14 05:41:10;;;;;;;29.70;15.70;;;;;;;14.92;33.46;100593.05;105766;1277;96490;-77
2022/04/14 05:43:42;;;;;;;30.10;16.20;;;;;;;15.25;32.64;100586.33;105644;1278;138067;-76
2022/04/14 05:46:14;;;;;;;24.70;16.30;;;;;;;15.39;32.24;100588.27;105832;1278;111268;-76
2022/04/14 05:48:47;;;;;;;25.80;16.00;;;;;;;15.62;32.23;100593.36;105806;1277;109004;-78
2022/04/14 05:51:21;;;;;;;26.90;15.70;;;;;;;15.99;31.33;100590.36;105643;1278;138167;-77
2022/04/14 05:53:54;;;;;;;26.00;16.50;;;;;;;16.27;30.71;100593.84;105860;1277;96459;-77
2022/04/14 05:56:26;;;;;;;28.80;16.90;;;;;;;16.47;30.02;100591.99;105751;1278;137976;-76
2022/04/14 05:58:59;;;;;;;25.70;17.30;;;;;;;16.55;29.65;100594.88;105957;1278;110104;-78
2022/04/14 06:01:31;;;;;;;27.30;17.10;;;;;;;16.63;29.60;100594.48;105751;1277;139886;-78
2022/04/14 06:04:03;;;;;;;28.80;16.50;;;;;;;16.77;29.35;100589.58;105830;1278;108567;-76
2022/04/14 06:06:35;;;;;;;31.00;17.00;;;;;;;17.11;29.33;100580.37;105920;1277;96500;-78
2022/04/14 06:09:07;;;;;;;29.60;16.50;;;;;;;17.62;28.92;100579.34;105836;1277;138425;-79
2022/04/14 06:11:39;;;;;;;30.70;16.20;;;;;;;18.19;28.21;100576.81;105841;1278;109758;-78
2022/04/14 06:14:11;;;;;;;26.40;15.90;;;;;;;18.79;27.80;100572.02;106343;1277;138047;-79
2022/04/14 06:16:43;;;;;;;29.80;16.20;;;;;;;19.15;27.16;100572.77;107306;1277;108912;-80
2022/04/14 06:19:15;;;;;;;29.10;15.10;;;;;;;19.49;26.51;100572.38;107174;1277;138660;-79
2022/04/14 06:21:47;;;;;;;28.70;15.50;;;;;;;19.94;25.99;100575.82;107291;1277;94744;-79
2022/04/14 06:24:19;;;;;;;25.20;15.10;;;;;;;20.43;25.53;100565.10;107112;1277;111126;-79
2022/04/14 06:26:51;;;;;;;20.70;14.60;;;;;;;20.96;25.14;100562.02;106099;1278;139205;-80
2022/04/14 06:29:23;;;;;;;27.90;15.40;;;;;;;21.58;24.68;100556.12;106828;1277;108600;-79
2022/04/14 06:31:55;;;;;;;28.70;15.90;;;;;;;22.09;23.37;100552.92;106274;1277;138255;-77
2022/04/14 06:34:27;;;;;;;29.50;15.20;;;;;;;22.26;23.35;100551.20;106555;1277;96339;-79
2022/04/14 06:37:00;;;;;;;30.30;15.30;;;;;;;22.30;22.85;100553.27;105968;1277;111074;-80
2022/04/14 06:39:32;;;;;;;32.10;16.30;;;;;;;22.22;22.79;100551.36;105829;1278;137835;-77
2022/04/14 06:42:05;;;;;;;27.90;15.50;;;;;;;22.06;22.66;100546.72;106818;1278;108130;-78
2022/04/14 06:44:37;;;;;;;31.20;16.20;;;;;;;21.97;22.97;100544.77;107192;1277;140098;-80
2022/04/14 06:47:09;;;;;;;28.00;15.70;;;;;;;22.03;22.68;100540.92;107297;1277;94410;-80
2022/04/14 06:49:41;;;;;;;27.30;15.20;;;;;;;22.27;22.84;100543.87;106740;1278;138744;-78
2022/04/14 06:52:13;;;;;;;24.90;15.20;;;;;;;22.54;22.73;100537.04;106967;1277;108871;-85
2022/04/14 06:54:45;;;;;;;23.20;14.70;;;;;;;22.78;22.43;100534.83;106628;1279;107833;-84
2022/04/14 06:57:18;;;;;;;25.60;14.70;;;;;;;23.00;21.64;100536.17;105982;1278;138455;-79
2022/04/14 06:59:50;;;;;;;25.10;15.20;;;;;;;23.00;21.57;100533.85;106001;1278;96590;-78
2022/04/14 07:02:22;;;;;;;23.70;14.70;;;;;;;23.04;21.31;100530.86;106852;1277;137784;-80
2022/04/14 07:04:55;;;;;;;24.30;14.70;;;;;;;23.14;21.54;100528.04;106935;1278;108783;-79
2022/04/14 07:07:27;;;;;;;25.90;14.20;;;;;;;23.31;21.14;100529.75;107206;1277;138270;-79
2022/04/14 07:09:58;;;;;;;25.10;14.70;;;;;;;23.39;21.03;100526.73;107340;1277;94461;-80
2022/04/14 07:12:30;;;;;;;22.10;13.10;;;;;;;23.36;20.77;100533.96;107356;1277;94990;-80
2022/04/14 07:15:03;;;;;;;23.90;14.00;;;;;;;23.37;20.96;100522.52;107164;1279;138247;-83
2022/04/14 07:17:36;;;;;;;27.00;13.30;;;;;;;23.72;20.87;100514.69;106753;1278;107927;-80
2022/04/14 07:20:10;;;;;;;27.00;13.10;;;;;;;24.12;20.59;100515.17;105657;1278;138020;-79
2022/04/14 07:22:46;;;;;;;21.60;12.60;;;;;;;24.54;20.06;100507.95;107367;1277;94531;-76
2022/04/14 07:25:25;;;;;;;19.60;11.80;;;;;;;24.75;19.37;100507.71;107154;1277;138154;-73
2022/04/14 07:27:59;;;;;;;20.90;12.00;;;;;;;25.08;19.74;100500.52;105960;1278;111077;-77
2022/04/14 07:30:31;;;;;;;22.60;11.60;;;;;;;25.33;18.60;100509.70;106414;1278;109019;-77
2022/04/14 07:33:05;;;;;;;28.80;11.30;;;;;;;25.35;18.61;100511.31;106363;1277;138438;-76
2022/04/14 07:35:37;;;;;;;18.00;11.00;;;;;;;25.38;18.65;100508.89;105917;1279;96742;-78
2022/04/14 07:38:09;;;;;;;20.60;10.90;;;;;;;25.58;18.71;100512.09;105825;1277;138079;-81
2022/04/14 07:40:41;;;;;;;19.20;10.90;;;;;;;25.90;18.88;100503.97;107052;1278;109904;-80
2022/04/14 07:43:13;;;;;;;21.40;11.00;;;;;;;26.41;18.93;100498.70;107201;1277;138852;-79
2022/04/14 07:45:45;;;;;;;15.10;10.30;;;;;;;26.70;18.40;100491.78;106653;1277;106871;-79
2022/04/14 07:48:21;;;;;;;20.80;10.80;;;;;;;26.88;17.81;100490.04;106579;1279;96583;-79
2022/04/14 07:50:53;;;;;;;20.60;11.20;;;;;;;27.37;18.15;100496.35;105751;1278;137982;-78
2022/04/14 07:53:25;;;;;;;17.60;10.80;;;;;;;27.77;17.89;100486.66;106034;1279;110089;-78
2022/04/14 07:55:57;;;;;;;18.10;9.20;;;;;;;28.15;17.27;100491.20;105742;1279;137992;-78
2022/04/14 07:58:29;;;;;;;14.30;9.30;;;;;;;28.00;16.29;100490.23;105664;1278;109831;-77
2022/04/14 08:01:01;;;;;;;19.70;9.10;;;;;;;27.75;16.96;100485.48;105848;1278;96495;-78
2022/04/14 08:03:36;;;;;;;17.80;9.00;;;;;;;27.81;16.84;100488.26;105803;1278;138718;-80
2022/04/14 08:06:08;;;;;;;13.60;8.80;;;;;;;28.04;16.86;100490.00;106657;1279;109679;-78
2022/04/14 08:08:40;;;;;;;15.40;8.20;;;;;;;28.08;16.73;100489.73;107158;1279;138851;-78
2022/04/14 08:11:12;;;;;;;13.90;8.70;;;;;;;28.05;16.96;100487.92;106898;1277;108998;-77
2022/04/14 08:13:44;;;;;;;14.20;7.80;;;;;;;28.45;16.07;100485.23;106869;1278;138711;-78
2022/04/14 08:16:16;;;;;;;14.30;8.10;;;;;;;28.35;15.60;100485.95;106403;1278;95161;-80
2022/04/14 08:18:48;;;;;;;16.00;8.40;;;;;;;27.94;15.53;100490.29;105831;1278;109976;-80
2022/04/14 08:21:20;;;;;;;12.60;8.50;;;;;;;27.46;15.74;100485.96;105707;1278;139514;-79
2022/04/14 08:23:53;;;;;;;12.40;7.90;;;;;;;27.20;16.45;100481.58;106328;1278;108183;-78
2022/04/14 08:26:26;;;;;;;12.60;7.80;;;;;;;27.10;16.39;100483.27;105888;1278;138356;-79
2022/04/14 08:28:59;;;;;;;13.50;7.30;;;;;;;27.12;16.36;100483.43;107350;1278;94807;-80
2022/04/14 08:31:31;;;;;;;12.00;7.30;;;;;;;26.94;16.64;100479.98;107247;1278;139625;-79
2022/04/14 08:34:05;;;;;;;11.50;6.80;;;;;;;27.01;16.45;100484.00;107335;1277;107928;-78
2022/04/14 08:36:37;;;;;;;13.90;7.10;;;;;;;26.97;16.63;100477.27;105946;1278;107697;-78
2022/04/14 08:39:09;;;;;;;11.10;7.10;;;;;;;26.94;16.18;100481.39;105781;1279;137856;-80
2022/04/14 08:41:51;;;;;;;10.40;6.30;;;;;;;26.86;15.95;100482.39;105916;1279;96389;-78
2022/04/14 08:44:29;;;;;;;11.60;6.20;;;;;;;26.70;16.08;100481.44;105800;1279;137893;-77
2022/04/14 08:47:01;;;;;;;11.00;6.60;;;;;;;26.48;16.36;100480.15;105920;1278;109048;-78
2022/04/14 08:49:34;;;;;;;10.10;6.20;;;;;;;26.60;16.25;100480.61;105810;1279;138031;-78
2022/04/14 08:52:08;;;;;;;10.20;6.10;;;;;;;26.68;16.10;100481.81;107380;1277;94557;-79
2022/04/14 08:54:40;;;;;;;11.50;5.80;;;;;;;26.62;16.20;100480.98;107385;1279;94882;-80
2022/04/14 08:57:13;;;;;;;10.80;5.50;;;;;;;26.42;15.70;100487.48;107243;1278;138293;-80
2022/04/14 08:59:46;;;;;;;10.40;6.60;;;;;;;26.19;15.98;100481.06;106200;1278;107799;-82
2022/04/14 09:02:21;;;;;;;12.30;5.60;;;;;;;26.05;16.02;100480.10;105840;1279;138961;-81
2022/04/14 09:04:55;;;;;;;10.30;4.90;;;;;;;25.76;15.77;100480.52;105791;1278;96492;-82
2022/04/14 09:07:27;;;;;;;7.70;5.10;;;;;;;25.43;16.17;100478.54;107205;1278;139548;-83
2022/04/14 09:09:58;;;;;;;11.60;5.50;;;;;;;25.37;16.30;100479.66;107339;1278;111033;-83
2022/04/14 09:12:31;;;;;;;11.10;5.40;;;;;;;25.56;16.76;100465.59;107390;1279;110250;-82
2022/04/14 09:15:05;;;;;;;9.30;5.70;;;;;;;25.99;16.99;100463.73;107267;1277;139780;-82
2022/04/14 09:17:37;;;;;;;8.50;5.40;;;;;;;26.03;15.99;100454.84;105906;1279;96515;-81
2022/04/14 09:20:34;;;;;;;9.40;4.90;;;;;;;25.87;16.28;100458.44;105858;1278;137512;-83
2022/04/14 09:23:20;;;;;;;10.70;6.00;;;;;;;25.66;16.48;100449.73;105870;1279;111132;-83
2022/04/14 09:26:09;;;;;;;8.90;5.20;;;;;;;25.70;16.75;100453.66;107200;1278;138018;-85
2022/04/14 09:28:42;;;;;;;12.30;5.90;;;;;;;25.92;16.21;100449.48;106458;1279;108913;-83
2022/04/14 09:31:14;;;;;;;9.50;4.90;;;;;;;25.83;16.35;100453.23;105657;1279;137992;-82
2022/04/14 09:33:49;;;;;;;9.30;4.60;;;;;;;25.69;16.10;100457.48;105685;1279;96504;-81
2022/04/14 09:36:23;;;;;;;6.90;5.20;;;;;;;25.24;16.22;100449.44;105846;1279;111264;-79
2022/04/14 09:38:59;;;;;;;9.50;5.50;;;;;;;25.09;16.47;100446.02;107183;1279;139208;-84
2022/04/14 09:41:37;;;;;;;10.90;4.90;;;;;;;25.19;16.87;100436.33;106172;1279;105989;-83
2022/04/14 09:44:11;;;;;;;10.50;4.80;;;;;;;25.39;16.79;100431.15;106125;1279;138038;-84
2022/04/14 09:46:47;;;;;;;10.20;4.60;;;;;;;25.34;16.62;100424.16;105899;1279;96699;-84
2022/04/14 09:49:20;;;;;;;8.90;4.50;;;;;;;25.19;16.33;100428.66;105711;1278;139541;-87
2022/04/14 09:51:52;;;;;;;9.70;4.50;;;;;;;25.08;16.53;100417.27;105758;1279;108364;-85
2022/04/14 09:54:31;;;;;;;9.50;4.50;;;;;;;24.98;15.79;100429.17;105700;1279;107970;-85
2022/04/14 09:57:03;;;;;;;11.70;4.00;;;;;;;24.70;16.19;100412.69;105780;1279;137716;-84
2022/04/14 09:59:37;;;;;;;12.40;4.70;;;;;;;24.41;16.25;100413.77;107236;1279;95946;-85
2022/04/14 10:02:14;;;;;;;6.10;4.10;;;;;;;24.17;16.26;100415.83;107170;1279;138375;-83
2022/04/14 10:04:49;;;;;;;10.60;3.90;;;;;;;23.90;16.23;100403.77;106508;1279;107571;-83
2022/04/14 10:07:22;;;;;;;14.30;4.60;;;;;;;23.86;16.66;100403.08;107141;1279;138137;-83
2022/04/14 10:09:54;;;;;;;23.90;20.30;;;;;;;24.01;16.74;100394.44;107266;1278;94844;-84
2022/04/14 10:12:33;;;;;;;16.60;10.00;;;;;;;24.00;16.53;100401.98;107244;1279;94789;-83
2022/04/14 10:15:07;;;;;;;16.50;7.10;;;;;;;23.77;16.38;100397.13;107160;1278;138188;-87
2022/04/14 10:17:41;;;;;;;11.60;6.20;;;;;;;23.59;16.31;100391.67;106727;1279;109145;-80
2022/04/14 10:20:14;;;;;;;8.80;4.00;;;;;;;23.56;16.42;100396.05;105608;1279;137878;-83
2022/04/14 10:22:48;;;;;;;8.80;3.80;;;;;;;23.60;16.40;100392.28;105767;1279;96454;-83
2022/04/14 10:25:20;;;;;;;9.00;4.20;;;;;;;23.62;16.49;100393.02;105660;1279;137869;-81
2022/04/14 10:27:57;;;;;;;10.00;4.30;;;;;;;23.52;16.47;100385.67;105892;1279;111388;-81
2022/04/14 10:30:27;;;;;;;;;;;;;;;23.31;16.33;100397.02;106557;1278;108926;-82
2022/04/14 10:33:00;;;;;;;11.60;3.80;;;;;;;23.12;16.26;100388.67;107207;1279;125746;-80
2022/04/14 10:35:33;;;;;;;8.90;3.90;;;;;;;23.11;16.38;100382.16;107317;1279;94645;-82
2022/04/14 10:38:12;;;;;;;12.40;4.10;;;;;;;23.19;16.40;100374.60;105739;1278;139130;-81
2022/04/14 10:40:48;;;;;;;7.80;3.80;;;;;;;23.09;15.97;100381.23;105816;1279;108363;-82
2022/04/14 10:43:21;;;;;;;;;;;;;;;22.88;15.86;100373.98;105839;1279;137901;-85
2022/04/14 10:45:56;;;;;;;17.50;11.50;;;;;;;22.62;15.67;100379.95;107354;1277;108175;-77
2022/04/14 10:48:31;;;;;;;26.30;10.00;;;;;;;22.49;16.45;100370.56;106528;1278;96876;-82
2022/04/14 10:51:23;;;;;;;19.60;10.80;;;;;;;22.61;16.63;100367.98;105962;1279;137829;-83
2022/04/14 10:54:00;;;;;;;8.00;4.00;;;;;;;22.67;16.31;100368.36;107349;1279;110209;-83
2022/04/14 10:56:50;;;;;;;12.60;4.90;;;;;;;22.57;16.06;100365.41;106568;1279;137938;-82
2022/04/14 10:59:43;;;;;;;8.10;3.90;;;;;;;22.40;15.71;100365.61;106977;1278;109401;-80
2022/04/14 11:02:17;;;;;;;7.80;3.50;;;;;;;22.09;15.90;100368.69;107175;1278;137706;-80
2022/04/14 11:04:53;;;;;;;9.00;4.00;;;;;;;21.92;16.21;100358.90;107134;1279;94922;-80
2022/04/14 11:07:26;;;;;;;14.50;4.20;;;;;;;21.81;16.44;100350.70;106174;1279;138136;-79
2022/04/14 11:10:01;;;;;;;7.20;4.00;;;;;;;21.71;16.55;100347.25;105925;1279;107809;-82
2022/04/14 11:12:56;;;;;;;12.00;4.50;;;;;;;21.61;16.45;100349.77;106001;1279;108436;-81
2022/04/14 11:15:33;;;;;;;11.00;4.00;;;;;;;21.43;16.42;100337.55;105808;1279;138742;-82
2022/04/14 11:18:07;;;;;;;12.00;5.00;;;;;;;21.35;17.02;100330.52;106198;1278;96377;-81
2022/04/14 11:20:57;;;;;;;10.50;5.10;;;;;;;21.37;16.67;100337.61;105941;1277;137848;-82
2022/04/14 11:23:30;;;;;;;8.20;4.10;;;;;;;21.34;16.91;100333.77;106400;1278;108787;-83
2022/04/14 11:26:09;;;;;;;8.70;4.70;;;;;;;21.27;17.08;100335.58;106733;1279;139543;-86
2022/04/14 11:28:46;;;;;;;10.50;4.90;;;;;;;21.22;17.25;100324.64;105860;1279;96580;-86